Time;durP1;ratioP1;P1;durP2;ratioP2;P2;SDS_P1;SDS_P2;PMS_P1;PMS_P2;Temp;Humidity;BMP_temperature;BMP_pressure;BME280_temperature;BME280_humidity;BME280_pressure;Samples;Min_cycle;Max_cycle;Signal;HPM_P1;HPM_P2
2023/08/01 00:01:05;;;;;;;3.03;2.50;;;;;;;;;;6073665;29;20254;-79
2023/08/01 00:04:10;;;;;;;3.28;2.65;;;;;;;;;;6072762;29;20245;-79
2023/08/01 00:07:14;;;;;;;3.08;2.88;;;;;;;;;;6072236;29;20601;-78
2023/08/01 00:10:18;;;;;;;4.28;2.72;;;;;;;;;;6072484;29;20254;-78
2023/08/01 00:13:22;;;;;;;2.83;2.55;;;;;;;;;;6071387;29;20301;-78
2023/08/01 00:16:26;;;;;;;3.83;2.80;;;;;;;;;;6072274;29;20250;-78
2023/08/01 00:19:31;;;;;;;3.42;3.10;;;;;;;;;;6071778;29;20242;-78
2023/08/01 00:22:35;;;;;;;3.22;2.72;;;;;;;;;;6071775;29;20257;-78
2023/08/01 00:25:39;;;;;;;4.38;2.72;;;;;;;;;;6071650;29;20250;-78
2023/08/01 00:28:43;;;;;;;5.82;2.53;;;;;;;;;;6071988;29;20254;-77
2023/08/01 00:31:46;;;;;;;5.43;3.00;;;;;;;;;;6071963;29;20274;-78
2023/08/01 00:34:52;;;;;;;4.97;3.88;;;;;;;;;;6071882;29;20254;-78
2023/08/01 00:37:56;;;;;;;7.47;3.28;;;;;;;;;;6070010;29;20288;-78
2023/08/01 00:41:00;;;;;;;4.18;2.55;;;;;;;;;;6070815;29;20278;-78
2023/08/01 00:44:04;;;;;;;5.97;2.60;;;;;;;;;;6054548;29;20284;-78
2023/08/01 00:47:08;;;;;;;3.13;2.67;;;;;;;;;;6055280;29;20269;-80
2023/08/01 00:50:14;;;;;;;7.60;2.90;;;;;;;;;;6070214;29;20272;-80
2023/08/01 00:53:18;;;;;;;3.22;2.88;;;;;;;;;;6071242;29;20317;-79
2023/08/01 00:56:22;;;;;;;4.45;3.10;;;;;;;;;;6069692;29;20484;-79
2023/08/01 00:59:26;;;;;;;3.30;3.10;;;;;;;;;;6068597;29;20784;-79
2023/08/01 01:02:29;;;;;;;4.63;2.65;;;;;;;;;;6070662;29;20296;-79
2023/08/01 01:05:38;;;;;;;4.57;2.40;;;;;;;;;;6070765;29;20289;-79
2023/08/01 01:08:42;;;;;;;2.47;2.30;;;;;;;;;;6070849;29;20550;-78
2023/08/01 01:11:45;;;;;;;2.55;2.40;;;;;;;;;;6070780;29;20281;-79
2023/08/01 01:14:49;;;;;;;3.13;2.40;;;;;;;;;;6054356;29;20455;-79
2023/08/01 01:17:53;;;;;;;3.55;2.45;;;;;;;;;;6069812;29;20278;-79
2023/08/01 01:20:58;;;;;;;5.22;2.38;;;;;;;;;;6078844;29;20269;-79
2023/08/01 01:24:04;;;;;;;4.07;2.30;;;;;;;;;;6070778;29;20245;-79
2023/08/01 01:27:08;;;;;;;4.15;2.60;;;;;;;;;;6069771;29;20289;-78
2023/08/01 01:30:12;;;;;;;2.20;2.00;;;;;;;;;;6070455;29;20409;-78
2023/08/01 01:33:16;;;;;;;2.72;2.10;;;;;;;;;;6069493;29;20403;-78
2023/08/01 01:36:22;;;;;;;3.92;2.08;;;;;;;;;;6070136;29;20554;-78
2023/08/01 01:39:26;;;;;;;2.47;2.22;;;;;;;;;;6068789;29;20837;-79
2023/08/01 01:42:30;;;;;;;5.55;2.92;;;;;;;;;;6069616;29;20281;-80
2023/08/01 01:45:35;;;;;;;2.58;2.33;;;;;;;;;;6068818;29;20476;-79
2023/08/01 01:48:38;;;;;;;1.92;1.83;;;;;;;;;;6069533;29;20298;-79
2023/08/01 01:51:44;;;;;;;3.70;2.00;;;;;;;;;;6070430;29;20245;-79
2023/08/01 01:54:48;;;;;;;3.90;2.35;;;;;;;;;;6069213;29;20289;-79
2023/08/01 01:57:52;;;;;;;2.10;1.90;;;;;;;;;;6068731;29;20277;-79
2023/08/01 02:00:55;;;;;;;2.00;1.90;;;;;;;;;;6068716;29;20273;-79
2023/08/01 02:04:00;;;;;;;2.13;1.90;;;;;;;;;;6069647;29;20254;-79
2023/08/01 02:07:05;;;;;;;3.40;2.03;;;;;;;;;;6068834;29;20304;-79
2023/08/01 02:10:10;;;;;;;1.80;1.70;;;;;;;;;;6069385;29;20438;-79
2023/08/01 02:13:14;;;;;;;2.22;1.90;;;;;;;;;;6068679;29;20298;-79
2023/08/01 02:16:18;;;;;;;3.47;2.20;;;;;;;;;;6094424;29;20257;-79
2023/08/01 02:19:22;;;;;;;2.15;1.90;;;;;;;;;;6091620;29;20273;-79
2023/08/01 02:22:27;;;;;;;2.00;1.80;;;;;;;;;;6091731;29;20268;-79
2023/08/01 02:25:31;;;;;;;1.85;1.73;;;;;;;;;;6091729;29;20289;-79
2023/08/01 02:28:35;;;;;;;2.08;1.83;;;;;;;;;;6093035;29;20542;-79
2023/08/01 02:31:39;;;;;;;2.88;1.70;;;;;;;;;;6092913;29;20241;-79
2023/08/01 02:34:45;;;;;;;2.03;1.90;;;;;;;;;;6092895;29;20268;-79
2023/08/01 02:37:50;;;;;;;2.42;2.10;;;;;;;;;;6092839;29;20253;-79
2023/08/01 02:40:54;;;;;;;1.85;1.75;;;;;;;;;;6092908;29;20249;-78
2023/08/01 02:43:57;;;;;;;3.35;1.90;;;;;;;;;;6092217;29;20280;-77
2023/08/01 02:47:02;;;;;;;2.25;2.10;;;;;;;;;;6094353;29;20276;-78
2023/08/01 02:50:06;;;;;;;2.83;1.80;;;;;;;;;;6093160;29;20499;-79
2023/08/01 02:53:11;;;;;;;2.25;2.05;;;;;;;;;;6092462;29;20265;-80
2023/08/01 02:56:15;;;;;;;2.08;1.90;;;;;;;;;;6092724;29;20253;-79
2023/08/01 02:59:19;;;;;;;2.67;2.25;;;;;;;;;;6091433;29;20268;-79
2023/08/01 03:02:23;;;;;;;2.45;2.35;;;;;;;;;;6098479;29;20482;-79
2023/08/01 03:05:29;;;;;;;3.75;2.03;;;;;;;;;;6096842;29;20372;-78
2023/08/01 03:08:34;;;;;;;3.03;2.10;;;;;;;;;;6096134;29;20272;-78
2023/08/01 03:11:39;;;;;;;3.63;2.10;;;;;;;;;;6096949;29;20256;-79
2023/08/01 03:14:43;;;;;;;3.20;2.05;;;;;;;;;;6096762;29;20272;-78
2023/08/01 03:17:47;;;;;;;2.60;2.10;;;;;;;;;;6096561;29;20341;-79
2023/08/01 03:20:51;;;;;;;2.42;2.20;;;;;;;;;;6096412;29;20249;-79
2023/08/01 03:23:57;;;;;;;2.47;2.10;;;;;;;;;;6096835;29;20256;-79
2023/08/01 03:27:01;;;;;;;3.53;2.28;;;;;;;;;;6096176;29;20249;-78
2023/08/01 03:30:08;;;;;;;2.10;2.00;;;;;;;;;;6095151;29;20269;-79
2023/08/01 03:33:12;;;;;;;5.05;2.40;;;;;;;;;;6096559;29;20269;-78
2023/08/01 03:36:17;;;;;;;2.53;2.33;;;;;;;;;;6094818;29;20272;-80
2023/08/01 03:39:23;;;;;;;2.95;2.60;;;;;;;;;;6096029;29;20245;-78
2023/08/01 03:42:26;;;;;;;3.25;2.22;;;;;;;;;;6094629;29;20281;-78
2023/08/01 03:45:30;;;;;;;3.40;2.30;;;;;;;;;;6095996;29;20252;-80
2023/08/01 03:48:34;;;;;;;4.22;2.33;;;;;;;;;;6096160;29;20241;-79
2023/08/01 03:51:38;;;;;;;4.25;2.90;;;;;;;;;;6094705;29;20462;-79
2023/08/01 03:54:43;;;;;;;2.40;2.30;;;;;;;;;;6094746;29;20292;-79
2023/08/01 03:57:47;;;;;;;2.67;2.47;;;;;;;;;;6094444;29;20288;-78
2023/08/01 04:00:51;;;;;;;3.40;2.20;;;;;;;;;;6094407;29;20272;-78
2023/08/01 04:03:55;;;;;;;3.45;2.55;;;;;;;;;;6095465;29;20245;-78
2023/08/01 04:07:00;;;;;;;4.45;2.80;;;;;;;;;;6095257;29;20284;-79
2023/08/01 04:10:06;;;;;;;3.85;2.75;;;;;;;;;;6098727;29;20237;-78
2023/08/01 04:13:09;;;;;;;2.97;2.70;;;;;;;;;;6099682;29;20513;-80
2023/08/01 04:16:13;;;;;;;2.75;2.53;;;;;;;;;;6073330;29;20269;-80
2023/08/01 04:19:17;;;;;;;3.50;2.50;;;;;;;;;;6072095;29;20254;-78
2023/08/01 04:22:21;;;;;;;3.45;2.78;;;;;;;;;;6071826;29;20241;-78
2023/08/01 04:25:27;;;;;;;3.13;2.60;;;;;;;;;;6071701;29;20424;-78
2023/08/01 04:28:30;;;;;;;3.97;2.65;;;;;;;;;;6072154;29;20447;-78
2023/08/01 04:31:34;;;;;;;4.25;2.95;;;;;;;;;;6071496;29;20253;-79
2023/08/01 04:34:38;;;;;;;6.35;2.90;;;;;;;;;;6071696;29;20274;-78
2023/08/01 04:37:42;;;;;;;3.65;2.70;;;;;;;;;;6071562;29;20238;-78
2023/08/01 04:40:47;;;;;;;5.55;2.90;;;;;;;;;;6071586;29;20242;-78
2023/08/01 04:43:51;;;;;;;4.53;2.47;;;;;;;;;;6070468;29;20273;-78
2023/08/01 04:46:55;;;;;;;2.90;2.58;;;;;;;;;;6071636;29;20279;-79
2023/08/01 04:49:59;;;;;;;4.97;2.60;;;;;;;;;;6070257;29;20278;-78
2023/08/01 04:53:03;;;;;;;2.55;2.45;;;;;;;;;;6070144;29;20277;-78
2023/08/01 04:56:09;;;;;;;6.10;2.88;;;;;;;;;;6071077;29;20276;-78
2023/08/01 04:59:12;;;;;;;2.55;2.40;;;;;;;;;;6071137;29;20245;-80
2023/08/01 05:02:16;;;;;;;3.85;2.72;;;;;;;;;;6071058;29;20238;-79
2023/08/01 05:05:20;;;;;;;5.07;2.72;;;;;;;;;;6070691;29;20301;-79
2023/08/01 05:08:24;;;;;;;4.07;2.60;;;;;;;;;;6071121;29;20241;-80
2023/08/01 05:11:29;;;;;;;3.67;2.50;;;;;;;;;;6069635;29;20276;-80
2023/08/01 05:14:33;;;;;;;5.20;2.50;;;;;;;;;;6079334;29;20260;-80
2023/08/01 05:17:37;;;;;;;2.55;2.40;;;;;;;;;;6093929;29;20249;-80
2023/08/01 05:20:40;;;;;;;4.50;2.75;;;;;;;;;;6093935;29;20248;-79
2023/08/01 05:23:44;;;;;;;5.00;2.72;;;;;;;;;;6094087;29;20324;-79
2023/08/01 05:26:50;;;;;;;3.88;2.80;;;;;;;;;;6093748;29;20241;-79
2023/08/01 05:29:53;;;;;;;4.00;2.70;;;;;;;;;;6093510;29;20249;-79
2023/08/01 05:32:57;;;;;;;3.90;2.50;;;;;;;;;;6093684;29;20269;-79
2023/08/01 05:36:02;;;;;;;2.83;2.40;;;;;;;;;;6099783;29;20277;-79
2023/08/01 05:39:07;;;;;;;4.95;2.70;;;;;;;;;;6098228;29;20244;-79
2023/08/01 05:42:12;;;;;;;3.13;2.45;;;;;;;;;;6093588;29;20545;-79
2023/08/01 05:45:16;;;;;;;2.83;2.58;;;;;;;;;;6092121;29;20556;-79
2023/08/01 05:48:20;;;;;;;7.18;2.38;;;;;;;;;;6093423;29;20260;-78
2023/08/01 05:51:24;;;;;;;4.93;2.45;;;;;;;;;;6093286;29;20240;-79
2023/08/01 05:54:27;;;;;;;3.92;2.38;;;;;;;;;;6093606;29;20248;-79
2023/08/01 05:57:33;;;;;;;7.50;2.50;;;;;;;;;;6093102;29;20245;-80
2023/08/01 06:00:37;;;;;;;2.80;2.33;;;;;;;;;;6093194;29;20249;-79
2023/08/01 06:03:41;;;;;;;3.53;2.45;;;;;;;;;;6093386;29;20513;-80
2023/08/01 06:06:45;;;;;;;3.35;2.65;;;;;;;;;;6093133;29;20309;-80
2023/08/01 06:09:49;;;;;;;2.72;2.53;;;;;;;;;;6093020;29;20245;-79
2023/08/01 06:12:54;;;;;;;2.85;2.50;;;;;;;;;;6093413;29;20437;-79
2023/08/01 06:15:58;;;;;;;4.78;2.47;;;;;;;;;;6093161;29;20269;-78
2023/08/01 06:19:02;;;;;;;5.05;2.60;;;;;;;;;;6092823;29;20249;-79
2023/08/01 06:22:06;;;;;;;3.70;2.80;;;;;;;;;;6093277;29;20249;-80
2023/08/01 06:25:10;;;;;;;2.95;2.33;;;;;;;;;;6092036;29;20572;-81
2023/08/01 06:28:15;;;;;;;2.78;2.58;;;;;;;;;;6093047;29;20240;-80
2023/08/01 06:31:19;;;;;;;2.50;2.30;;;;;;;;;;6093102;29;20237;-79
2023/08/01 06:34:24;;;;;;;5.55;2.50;;;;;;;;;;6092440;29;20272;-79
2023/08/01 06:37:28;;;;;;;2.67;2.15;;;;;;;;;;6097733;29;20268;-78
2023/08/01 06:40:32;;;;;;;5.22;2.53;;;;;;;;;;6097549;29;20241;-79
2023/08/01 06:43:38;;;;;;;3.50;3.10;;;;;;;;;;6098497;29;20249;-79
2023/08/01 06:46:42;;;;;;;2.20;2.10;;;;;;;;;;6100979;29;20424;-79
2023/08/01 06:49:46;;;;;;;2.80;2.25;;;;;;;;;;6097770;29;20281;-79
2023/08/01 06:52:50;;;;;;;2.45;2.30;;;;;;;;;;6097711;29;20242;-79
2023/08/01 06:55:54;;;;;;;2.40;2.28;;;;;;;;;;6097457;29;20273;-80
2023/08/01 06:58:59;;;;;;;3.47;2.55;;;;;;;;;;6099722;29;20245;-80
2023/08/01 07:02:03;;;;;;;2.72;2.10;;;;;;;;;;6104217;29;20252;-79
2023/08/01 07:05:07;;;;;;;4.68;2.50;;;;;;;;;;6097992;29;20586;-79
2023/08/01 07:08:11;;;;;;;4.78;2.42;;;;;;;;;;6080142;29;20349;-80
2023/08/01 07:11:16;;;;;;;5.63;2.25;;;;;;;;;;6097077;29;20433;-79
2023/08/01 07:14:21;;;;;;;2.67;2.10;;;;;;;;;;6089898;29;20498;-80
2023/08/01 07:17:25;;;;;;;3.70;2.47;;;;;;;;;;6073732;29;20261;-79
2023/08/01 07:20:29;;;;;;;3.17;2.33;;;;;;;;;;6073203;29;20249;-80
2023/08/01 07:23:35;;;;;;;2.47;2.30;;;;;;;;;;6073371;29;20245;-79
2023/08/01 07:26:38;;;;;;;5.10;2.38;;;;;;;;;;6073221;29;20537;-79
2023/08/01 07:29:44;;;;;;;2.95;2.15;;;;;;;;;;6073067;29;20250;-79
2023/08/01 07:32:48;;;;;;;4.05;2.40;;;;;;;;;;6073167;29;20246;-79
2023/08/01 07:35:52;;;;;;;3.15;2.30;;;;;;;;;;6072091;29;20289;-79
2023/08/01 07:38:56;;;;;;;4.55;2.13;;;;;;;;;;6072987;29;20258;-79
2023/08/01 07:42:00;;;;;;;6.18;2.25;;;;;;;;;;6072964;29;20435;-79
2023/08/01 07:45:07;;;;;;;4.68;2.35;;;;;;;;;;6072078;29;20460;-79
2023/08/01 07:48:11;;;;;;;4.93;2.53;;;;;;;;;;6073028;29;20242;-79
2023/08/01 07:51:14;;;;;;;2.40;2.20;;;;;;;;;;6072796;29;20247;-79
2023/08/01 07:54:18;;;;;;;1.85;1.83;;;;;;;;;;6073156;29;20234;-79
2023/08/01 07:57:22;;;;;;;6.07;2.50;;;;;;;;;;6073103;29;20273;-80
2023/08/01 08:00:27;;;;;;;2.78;2.17;;;;;;;;;;6072338;29;20424;-80
2023/08/01 08:03:31;;;;;;;2.40;2.30;;;;;;;;;;6072291;29;20290;-80
2023/08/01 08:06:35;;;;;;;2.40;2.20;;;;;;;;;;6071840;29;20313;-80
2023/08/01 08:09:39;;;;;;;3.80;2.20;;;;;;;;;;6072314;29;20249;-80
2023/08/01 08:12:43;;;;;;;3.65;2.33;;;;;;;;;;6072101;29;20245;-80
2023/08/01 08:15:48;;;;;;;2.60;2.45;;;;;;;;;;6090556;29;20273;-79
2023/08/01 08:18:52;;;;;;;4.05;2.45;;;;;;;;;;6095528;29;20233;-80
2023/08/01 08:21:56;;;;;;;4.03;2.60;;;;;;;;;;6095237;29;20253;-79
2023/08/01 08:25:00;;;;;;;2.78;2.40;;;;;;;;;;6093996;29;20456;-80
2023/08/01 08:28:04;;;;;;;2.50;2.40;;;;;;;;;;6105798;29;20265;-80
2023/08/01 08:31:10;;;;;;;2.38;2.22;;;;;;;;;;6096610;29;20244;-79
2023/08/01 08:34:13;;;;;;;2.95;2.75;;;;;;;;;;6095268;29;20249;-80
2023/08/01 08:37:17;;;;;;;3.45;2.80;;;;;;;;;;6095224;29;20268;-79
2023/08/01 08:40:21;;;;;;;2.97;2.70;;;;;;;;;;6093762;29;20478;-80
2023/08/01 08:43:27;;;;;;;3.78;2.50;;;;;;;;;;6094827;29;20237;-79
2023/08/01 08:46:35;;;;;;;2.75;2.55;;;;;;;;;;6094945;29;20250;-79
2023/08/01 08:49:39;;;;;;;5.57;2.20;;;;;;;;;;6093505;29;20416;-80
2023/08/01 08:52:43;;;;;;;2.78;1.90;;;;;;;;;;6094584;29;20245;-79
2023/08/01 08:55:47;;;;;;;2.15;2.15;;;;;;;;;;6094815;29;20485;-80
2023/08/01 08:58:52;;;;;;;2.17;1.80;;;;;;;;;;6093808;29;20466;-79
2023/08/01 09:01:57;;;;;;;1.95;1.85;;;;;;;;;;6093886;29;20285;-80
2023/08/01 09:05:01;;;;;;;2.00;1.90;;;;;;;;;;6094322;29;20245;-80
2023/08/01 09:08:09;;;;;;;2.13;1.88;;;;;;;;;;6094221;29;20533;-80
2023/08/01 09:11:14;;;;;;;2.92;1.70;;;;;;;;;;6094500;29;20252;-80
2023/08/01 09:14:19;;;;;;;2.92;1.80;;;;;;;;;;6087403;29;20246;-80
2023/08/01 09:17:24;;;;;;;1.90;1.90;;;;;;;;;;6071215;29;20269;-80
2023/08/01 09:20:28;;;;;;;1.70;1.70;;;;;;;;;;6073184;29;20234;-79
2023/08/01 09:23:32;;;;;;;2.70;1.70;;;;;;;;;;6070994;29;20329;-81
2023/08/01 09:26:36;;;;;;;1.77;1.67;;;;;;;;;;6070825;29;20257;-80
2023/08/01 09:29:40;;;;;;;1.50;1.40;;;;;;;;;;6069916;29;20281;-80
2023/08/01 09:32:53;;;;;;;1.95;1.60;;;;;;;;;;6070233;29;20273;-82
2023/08/01 09:35:57;;;;;;;1.60;1.60;;;;;;;;;;6070396;29;20529;-79
2023/08/01 09:39:02;;;;;;;1.65;1.55;;;;;;;;;;6070676;29;20286;-80
2023/08/01 09:42:07;;;;;;;1.58;1.48;;;;;;;;;;6070686;29;20246;-80
2023/08/01 09:45:15;;;;;;;2.15;1.80;;;;;;;;;;6070241;29;20241;-80
2023/08/01 09:48:27;;;;;;;2.25;1.60;;;;;;;;;;6070776;29;20530;-81
2023/08/01 09:51:31;;;;;;;1.63;1.63;;;;;;;;;;6073856;29;20243;-81
2023/08/01 09:54:35;;;;;;;6.72;1.70;;;;;;;;;;6080226;29;20210;-79
2023/08/01 09:57:39;;;;;;;1.60;1.60;;;;;;;;;;6069980;29;20269;-80
2023/08/01 10:00:43;;;;;;;1.58;1.33;;;;;;;;;;6070185;29;20249;-81
2023/08/01 10:03:50;;;;;;;1.52;1.52;;;;;;;;;;6069827;29;20245;-80
2023/08/01 10:06:56;;;;;;;1.70;1.60;;;;;;;;;;6070416;29;20305;-81
2023/08/01 10:10:01;;;;;;;1.55;1.55;;;;;;;;;;6070327;29;20246;-82
2023/08/01 10:13:05;;;;;;;1.58;1.58;;;;;;;;;;6070353;29;20250;-80
2023/08/01 10:16:09;;;;;;;1.40;1.40;;;;;;;;;;6090205;29;20268;-80
2023/08/01 10:19:14;;;;;;;2.03;1.92;;;;;;;;;;6093248;29;20264;-80
2023/08/01 10:22:18;;;;;;;1.60;1.50;;;;;;;;;;6093579;29;20530;-81
2023/08/01 10:25:23;;;;;;;1.52;1.48;;;;;;;;;;6094500;29;20245;-81
2023/08/01 10:28:33;;;;;;;1.75;1.65;;;;;;;;;;6097095;29;20280;-80
2023/08/01 10:31:37;;;;;;;1.50;1.50;;;;;;;;;;6093168;29;20245;-80
2023/08/01 10:34:53;;;;;;;1.50;1.50;;;;;;;;;;6092849;29;20249;-81
2023/08/01 10:38:05;;;;;;;1.60;1.50;;;;;;;;;;6092772;29;20272;-79
2023/08/01 10:41:19;;;;;;;3.05;1.90;;;;;;;;;;6093193;29;20237;-79
2023/08/01 10:44:23;;;;;;;1.20;1.20;;;;;;;;;;6092714;29;20529;-80
2023/08/01 10:47:27;;;;;;;1.55;1.55;;;;;;;;;;6091964;29;20573;-80
2023/08/01 10:50:33;;;;;;;1.70;1.60;;;;;;;;;;6093100;29;20277;-81
2023/08/01 10:53:40;;;;;;;2.08;2.08;;;;;;;;;;6092568;29;20513;-81
2023/08/01 10:56:46;;;;;;;1.75;1.73;;;;;;;;;;6092964;29;20249;-81
2023/08/01 10:59:50;;;;;;;1.55;1.42;;;;;;;;;;6092388;29;20273;-81
2023/08/01 11:02:54;;;;;;;1.40;1.40;;;;;;;;;;6091549;29;20272;-81
2023/08/01 11:06:00;;;;;;;1.40;1.40;;;;;;;;;;6092476;29;20284;-81
2023/08/01 11:09:16;;;;;;;1.40;1.40;;;;;;;;;;6092798;29;20245;-81
2023/08/01 11:12:20;;;;;;;1.42;1.42;;;;;;;;;;6092464;29;20249;-81
2023/08/01 11:15:24;;;;;;;1.48;1.48;;;;;;;;;;6077690;29;20277;-81
2023/08/01 11:18:28;;;;;;;1.55;1.45;;;;;;;;;;6081151;29;20262;-79
2023/08/01 11:21:36;;;;;;;1.40;1.40;;;;;;;;;;6073799;29;20585;-80
2023/08/01 11:24:39;;;;;;;1.75;1.65;;;;;;;;;;6073259;29;20437;-81
2023/08/01 11:27:43;;;;;;;1.30;1.30;;;;;;;;;;6073117;29;20261;-80
2023/08/01 11:30:47;;;;;;;1.35;1.35;;;;;;;;;;6073340;29;20246;-82
2023/08/01 11:33:57;;;;;;;1.80;1.70;;;;;;;;;;6071862;29;20269;-81
2023/08/01 11:37:03;;;;;;;1.52;1.48;;;;;;;;;;6072197;29;20269;-81
2023/08/01 11:40:09;;;;;;;1.70;1.60;;;;;;;;;;6073068;29;20273;-80
2023/08/01 11:43:13;;;;;;;3.00;1.50;;;;;;;;;;6075483;29;20257;-80
2023/08/01 11:46:17;;;;;;;1.33;1.33;;;;;;;;;;6072819;29;20253;-80
2023/08/01 11:49:21;;;;;;;1.88;1.65;;;;;;;;;;6072761;29;20346;-79
2023/08/01 11:52:27;;;;;;;1.55;1.30;;;;;;;;;;6073144;29;20330;-81
2023/08/01 11:55:30;;;;;;;1.48;1.48;;;;;;;;;;6072757;29;20242;-81
2023/08/01 11:58:36;;;;;;;1.40;1.40;;;;;;;;;;6072717;29;20269;-81
2023/08/01 12:01:40;;;;;;;1.40;1.40;;;;;;;;;;6072648;29;20245;-81
2023/08/01 12:04:47;;;;;;;1.63;1.55;;;;;;;;;;6072611;29;20250;-81
2023/08/01 12:07:52;;;;;;;1.90;1.80;;;;;;;;;;6072459;29;20250;-81
2023/08/01 12:10:56;;;;;;;3.42;1.65;;;;;;;;;;6072920;29;20245;-81
2023/08/01 12:14:04;;;;;;;1.60;1.60;;;;;;;;;;6072393;29;20243;-80
2023/08/01 12:17:08;;;;;;;1.58;1.50;;;;;;;;;;6072747;29;20241;-80
2023/08/01 12:20:13;;;;;;;2.67;1.80;;;;;;;;;;6072481;29;20273;-80
2023/08/01 12:23:18;;;;;;;2.15;1.80;;;;;;;;;;6071955;29;20428;-80
2023/08/01 12:26:22;;;;;;;1.88;1.65;;;;;;;;;;6072174;29;20245;-80
2023/08/01 12:29:26;;;;;;;3.70;2.17;;;;;;;;;;6072059;29;20253;-80
2023/08/01 12:32:29;;;;;;;1.85;1.75;;;;;;;;;;6071391;29;20272;-81
2023/08/01 12:35:33;;;;;;;11.43;1.60;;;;;;;;;;6072224;29;20262;-80
2023/08/01 12:38:39;;;;;;;2.40;2.20;;;;;;;;;;6071864;29;20242;-80
2023/08/01 12:41:43;;;;;;;2.00;1.90;;;;;;;;;;6076166;29;20522;-80
2023/08/01 12:44:47;;;;;;;1.75;1.65;;;;;;;;;;6081734;29;20241;-80
2023/08/01 12:47:51;;;;;;;2.03;1.92;;;;;;;;;;6071196;29;20281;-80
2023/08/01 12:50:55;;;;;;;1.75;1.65;;;;;;;;;;6071707;29;20249;-80
2023/08/01 12:54:01;;;;;;;1.83;1.70;;;;;;;;;;6071677;29;20530;-79
2023/08/01 12:57:05;;;;;;;2.28;1.33;;;;;;;;;;6070645;29;20273;-79
2023/08/01 13:00:10;;;;;;;1.65;1.60;;;;;;;;;;6071246;29;20273;-79
2023/08/01 13:03:14;;;;;;;2.90;1.60;;;;;;;;;;6071174;29;20241;-81
2023/08/01 13:06:18;;;;;;;1.58;1.58;;;;;;;;;;6071273;29;20296;-81
2023/08/01 13:09:23;;;;;;;3.10;1.50;;;;;;;;;;6071072;29;20250;-81
2023/08/01 13:12:27;;;;;;;1.63;1.55;;;;;;;;;;6070300;29;20280;-81
2023/08/01 13:15:31;;;;;;;1.70;1.70;;;;;;;;;;6087256;29;20245;-79
2023/08/01 13:18:35;;;;;;;3.00;1.88;;;;;;;;;;6094418;29;20249;-80
2023/08/01 13:21:39;;;;;;;2.88;1.75;;;;;;;;;;6094057;29;20345;-80
2023/08/01 13:24:46;;;;;;;2.08;1.77;;;;;;;;;;6093786;29;20268;-80
2023/08/01 13:27:50;;;;;;;1.60;1.50;;;;;;;;;;6093939;29;20505;-80
2023/08/01 13:30:54;;;;;;;2.08;1.60;;;;;;;;;;6094096;29;20253;-79
2023/08/01 13:33:58;;;;;;;1.30;1.30;;;;;;;;;;6077302;29;20272;-80
2023/08/01 13:37:02;;;;;;;1.23;1.23;;;;;;;;;;6093740;29;20268;-80
2023/08/01 13:40:10;;;;;;;1.40;1.40;;;;;;;;;;6093507;29;20442;-80
2023/08/01 13:43:14;;;;;;;1.40;1.40;;;;;;;;;;6093774;29;20250;-81
2023/08/01 13:46:19;;;;;;;1.75;1.48;;;;;;;;;;6093934;29;20249;-80
2023/08/01 13:49:43;;;;;;;1.63;1.63;;;;;;;;;;6093559;29;20257;-80
2023/08/01 13:52:47;;;;;;;1.42;1.38;;;;;;;;;;6093773;29;20257;-81
2023/08/01 13:55:52;;;;;;;1.70;1.60;;;;;;;;;;6093302;29;20245;-81
2023/08/01 13:58:56;;;;;;;1.45;1.40;;;;;;;;;;6092487;29;20341;-81
2023/08/01 14:01:59;;;;;;;2.00;1.90;;;;;;;;;;6093705;29;20552;-81
2023/08/01 14:05:04;;;;;;;2.53;1.63;;;;;;;;;;6093964;29;20437;-81
2023/08/01 14:08:08;;;;;;;1.70;1.70;;;;;;;;;;6100400;29;20563;-80
2023/08/01 14:11:13;;;;;;;1.45;1.45;;;;;;;;;;6097851;29;20245;-81
2023/08/01 14:14:16;;;;;;;2.00;1.65;;;;;;;;;;6087632;29;20249;-81
2023/08/01 14:17:21;;;;;;;1.35;1.35;;;;;;;;;;6070631;29;20330;-81
2023/08/01 14:20:24;;;;;;;1.73;1.63;;;;;;;;;;6070125;29;20442;-80
2023/08/01 14:23:29;;;;;;;1.50;1.50;;;;;;;;;;6070355;29;20316;-80
2023/08/01 14:26:34;;;;;;;1.50;1.30;;;;;;;;;;6070257;29;20261;-80
2023/08/01 14:29:38;;;;;;;1.50;1.50;;;;;;;;;;6069857;29;20246;-80
2023/08/01 14:32:42;;;;;;;1.40;1.33;;;;;;;;;;6069749;29;20250;-81
2023/08/01 14:35:45;;;;;;;1.63;1.63;;;;;;;;;;6069665;29;20443;-80
2023/08/01 14:38:54;;;;;;;1.77;1.58;;;;;;;;;;6069995;29;20461;-80
2023/08/01 14:42:04;;;;;;;1.85;1.75;;;;;;;;;;6069630;29;20269;-81
2023/08/01 14:45:09;;;;;;;1.75;1.40;;;;;;;;;;6069533;29;20526;-80
2023/08/01 14:48:13;;;;;;;1.80;1.70;;;;;;;;;;6069925;29;20494;-81
2023/08/01 14:51:17;;;;;;;1.70;1.60;;;;;;;;;;6070057;29;20529;-80
2023/08/01 14:54:21;;;;;;;1.60;1.60;;;;;;;;;;6068529;29;20462;-81
2023/08/01 14:57:43;;;;;;;1.70;1.60;;;;;;;;;;6073448;29;20237;-80
2023/08/01 15:00:49;;;;;;;1.90;1.80;;;;;;;;;;6074301;29;20273;-80
2023/08/01 15:03:53;;;;;;;1.65;1.58;;;;;;;;;;6074247;29;20241;-80
2023/08/01 15:06:56;;;;;;;1.60;1.55;;;;;;;;;;6073734;29;20493;-80
2023/08/01 15:10:01;;;;;;;4.10;2.00;;;;;;;;;;6074021;29;20238;-79
2023/08/01 15:13:06;;;;;;;2.08;1.73;;;;;;;;;;6073763;29;20414;-80
2023/08/01 15:16:11;;;;;;;2.58;1.70;;;;;;;;;;6095464;29;20248;-80
2023/08/01 15:19:15;;;;;;;2.70;1.60;;;;;;;;;;6097336;29;20241;-81
2023/08/01 15:22:19;;;;;;;1.70;1.60;;;;;;;;;;6097464;29;20269;-80
2023/08/01 15:25:23;;;;;;;1.60;1.50;;;;;;;;;;6098612;29;20241;-80
2023/08/01 15:28:29;;;;;;;1.75;1.70;;;;;;;;;;6099457;29;20269;-79
2023/08/01 15:31:34;;;;;;;1.77;1.63;;;;;;;;;;6100534;29;20253;-79
2023/08/01 15:34:38;;;;;;;1.50;1.50;;;;;;;;;;6096716;29;20526;-79
2023/08/01 15:37:42;;;;;;;1.58;1.58;;;;;;;;;;6096776;29;20248;-79
2023/08/01 15:40:46;;;;;;;2.38;1.50;;;;;;;;;;6096586;29;20276;-79
2023/08/01 15:43:52;;;;;;;1.40;1.30;;;;;;;;;;6096607;29;20246;-79
2023/08/01 15:46:55;;;;;;;1.55;1.45;;;;;;;;;;6096694;29;20241;-79
2023/08/01 15:49:59;;;;;;;1.70;1.70;;;;;;;;;;6094515;29;20272;-79
2023/08/01 15:53:03;;;;;;;1.60;1.50;;;;;;;;;;6096218;29;20533;-79
2023/08/01 15:56:10;;;;;;;1.67;1.60;;;;;;;;;;6095935;29;20248;-79
2023/08/01 15:59:16;;;;;;;2.88;1.70;;;;;;;;;;6097081;29;20241;-80
2023/08/01 16:02:20;;;;;;;1.30;1.30;;;;;;;;;;6095757;29;20293;-80
2023/08/01 16:05:24;;;;;;;1.38;1.38;;;;;;;;;;6097442;29;20296;-79
2023/08/01 16:08:28;;;;;;;1.30;1.20;;;;;;;;;;6099201;29;20242;-78
2023/08/01 16:11:33;;;;;;;2.95;1.77;;;;;;;;;;6094978;29;20277;-82
2023/08/01 16:14:38;;;;;;;1.50;1.50;;;;;;;;;;6086318;29;20270;-81
2023/08/01 16:17:44;;;;;;;1.75;1.35;;;;;;;;;;6072312;29;20245;-80
2023/08/01 16:20:48;;;;;;;1.50;1.50;;;;;;;;;;6072495;29;20237;-79
2023/08/01 16:23:52;;;;;;;1.27;1.27;;;;;;;;;;6072055;29;20250;-79
2023/08/01 16:26:56;;;;;;;3.10;1.63;;;;;;;;;;6073015;29;20445;-81
2023/08/01 16:30:01;;;;;;;2.08;1.27;;;;;;;;;;6072110;29;20250;-80
2023/08/01 16:33:05;;;;;;;1.38;1.38;;;;;;;;;;6071948;29;20279;-81
2023/08/01 16:36:09;;;;;;;1.75;1.20;;;;;;;;;;6071921;29;20462;-80
2023/08/01 16:39:12;;;;;;;1.50;1.50;;;;;;;;;;6072235;29;20241;-79
2023/08/01 16:42:16;;;;;;;1.60;1.50;;;;;;;;;;6071711;29;20269;-79
2023/08/01 16:45:22;;;;;;;2.15;1.60;;;;;;;;;;6071661;29;20314;-80
2023/08/01 16:48:25;;;;;;;4.72;1.73;;;;;;;;;;6072092;29;20250;-80
2023/08/01 16:51:29;;;;;;;1.90;1.80;;;;;;;;;;6071591;29;20534;-79
2023/08/01 16:54:33;;;;;;;1.70;1.60;;;;;;;;;;6073003;29;20249;-79
2023/08/01 16:57:37;;;;;;;1.50;1.50;;;;;;;;;;6081479;29;20265;-79
2023/08/01 17:00:43;;;;;;;1.30;1.30;;;;;;;;;;6072491;29;20329;-79
2023/08/01 17:03:46;;;;;;;3.25;1.40;;;;;;;;;;6071086;29;20265;-79
2023/08/01 17:06:50;;;;;;;3.10;1.58;;;;;;;;;;6070980;29;20289;-80
2023/08/01 17:09:56;;;;;;;1.40;1.40;;;;;;;;;;6070208;29;20269;-80
2023/08/01 17:13:01;;;;;;;1.50;1.50;;;;;;;;;;6071122;29;20250;-79
2023/08/01 17:16:06;;;;;;;1.33;1.30;;;;;;;;;;6091648;29;20552;-79
2023/08/01 17:19:13;;;;;;;1.88;1.67;;;;;;;;;;6092311;29;20443;-80
2023/08/01 17:22:17;;;;;;;1.60;1.50;;;;;;;;;;6094345;29;20272;-79
2023/08/01 17:25:21;;;;;;;1.30;1.30;;;;;;;;;;6093910;29;20241;-80
2023/08/01 17:28:25;;;;;;;1.50;1.50;;;;;;;;;;6094465;29;20249;-79
2023/08/01 17:31:31;;;;;;;1.30;1.30;;;;;;;;;;6093733;29;20253;-80
2023/08/01 17:34:35;;;;;;;1.40;1.30;;;;;;;;;;6093785;29;20257;-79
2023/08/01 17:37:39;;;;;;;1.40;1.30;;;;;;;;;;6093836;29;20245;-79
2023/08/01 17:40:45;;;;;;;1.40;1.40;;;;;;;;;;6094094;29;20241;-79
2023/08/01 17:43:49;;;;;;;2.55;1.17;;;;;;;;;;6093606;29;20273;-80
2023/08/01 17:46:54;;;;;;;1.00;1.00;;;;;;;;;;6093730;29;20244;-79
2023/08/01 17:49:58;;;;;;;1.40;1.30;;;;;;;;;;6094012;29;20248;-79
2023/08/01 17:53:02;;;;;;;1.20;1.20;;;;;;;;;;6094385;29;20248;-79
2023/08/01 17:56:07;;;;;;;1.10;1.10;;;;;;;;;;6093485;29;20553;-79
2023/08/01 17:59:12;;;;;;;1.95;1.27;;;;;;;;;;6093534;29;20241;-79
2023/08/01 18:02:17;;;;;;;1.17;1.10;;;;;;;;;;6092641;29;20300;-78
2023/08/01 18:05:21;;;;;;;1.55;1.25;;;;;;;;;;6093313;29;20308;-78
2023/08/01 18:08:25;;;;;;;1.30;1.30;;;;;;;;;;6092515;29;20276;-78
2023/08/01 18:11:29;;;;;;;1.63;1.25;;;;;;;;;;6093535;29;20244;-80
2023/08/01 18:14:34;;;;;;;1.10;1.10;;;;;;;;;;6093255;29;20248;-78
2023/08/01 18:17:39;;;;;;;1.50;1.40;;;;;;;;;;6093509;29;20249;-79
2023/08/01 18:20:44;;;;;;;1.52;1.52;;;;;;;;;;6095400;29;20245;-77
2023/08/01 18:23:49;;;;;;;1.65;1.58;;;;;;;;;;6102292;29;20501;-78
2023/08/01 18:26:52;;;;;;;1.40;1.33;;;;;;;;;;6092536;29;20264;-80